createdAt,value
2022-09-05T00:02:02.483Z,11.69
2022-09-05T00:05:23.431Z,11.60
2022-09-05T00:08:12.429Z,11.58
2022-09-05T00:11:43.320Z,11.53
2022-09-05T00:15:16.017Z,11.43
2022-09-05T00:24:17.024Z,11.49
2022-09-05T00:24:29.934Z,11.42
2022-09-05T00:28:30.981Z,10.98
2022-09-05T00:31:54.936Z,10.86
2022-09-05T00:35:19.133Z,10.96
2022-09-05T00:38:22.297Z,10.84
2022-09-05T00:41:14.065Z,10.87
2022-09-05T00:44:02.364Z,10.73
2022-09-05T00:47:03.849Z,10.67
2022-09-05T00:50:03.642Z,10.75
2022-09-05T00:53:07.478Z,10.66
2022-09-05T00:56:36.137Z,10.59
2022-09-05T00:59:34.094Z,10.50
2022-09-05T01:02:51.941Z,10.42
2022-09-05T01:05:59.325Z,10.23
2022-09-05T01:09:07.998Z,10.12
2022-09-05T01:12:18.520Z,9.95
2022-09-05T01:15:32.789Z,9.95
2022-09-05T01:18:46.922Z,9.86
2022-09-05T01:21:48.437Z,9.82
2022-09-05T01:24:55.531Z,9.74
2022-09-05T01:28:59.956Z,9.71
2022-09-05T01:31:57.100Z,9.67
2022-09-05T01:34:43.243Z,9.68
2022-09-05T01:37:48.235Z,9.61
2022-09-05T01:40:34.647Z,9.56
2022-09-05T01:43:42.172Z,9.71
2022-09-05T01:46:54.165Z,9.63
2022-09-05T01:50:00.817Z,9.53
2022-09-05T01:53:05.825Z,9.50
2022-09-05T01:56:04.026Z,9.34
2022-09-05T01:59:36.858Z,9.19
2022-09-05T02:02:50.778Z,9.17
2022-09-05T02:06:29.470Z,9.13
2022-09-05T02:09:41.041Z,9.07
2022-09-05T02:12:31.276Z,9.00
2022-09-05T02:15:22.130Z,8.83
2022-09-05T02:18:20.637Z,8.72
2022-09-05T02:21:55.514Z,8.78
2022-09-05T02:24:47.575Z,8.78
2022-09-05T02:28:04.360Z,8.70
2022-09-05T02:31:11.608Z,8.55
2022-09-05T02:34:31.051Z,8.53
2022-09-05T02:38:47.093Z,8.44
2022-09-05T02:45:12.502Z,8.41
2022-09-05T02:45:21.086Z,8.39
2022-09-05T02:47:51.196Z,8.35
2022-09-05T02:56:55.147Z,8.21
2022-09-05T02:57:38.792Z,8.11
2022-09-05T02:58:05.926Z,7.98
2022-09-05T03:00:55.087Z,7.89
2022-09-05T03:04:14.472Z,7.79
2022-09-05T03:07:40.892Z,7.70
2022-09-05T03:11:26.892Z,7.63
2022-09-05T03:14:46.195Z,7.58
2022-09-05T03:17:44.466Z,7.56
2022-09-05T03:20:51.320Z,7.48
2022-09-05T03:23:57.894Z,7.52
2022-09-05T03:27:33.435Z,7.60
2022-09-05T03:30:25.349Z,7.56
2022-09-05T03:33:42.122Z,7.43
2022-09-05T03:36:59.447Z,7.59
2022-09-05T03:40:23.460Z,7.47
2022-09-05T03:43:35.948Z,7.35
2022-09-05T03:46:48.858Z,7.32
2022-09-05T03:52:28.780Z,7.21
2022-09-05T03:57:17.966Z,7.11
2022-09-05T03:57:25.712Z,7.13
2022-09-05T03:59:49.522Z,7.12
2022-09-05T04:04:54.905Z,7.21
2022-09-05T04:08:26.844Z,7.19
2022-09-05T04:09:53.290Z,7.14
2022-09-05T04:12:48.634Z,7.05
2022-09-05T04:15:45.991Z,6.99
2022-09-05T04:18:42.799Z,7.14
2022-09-05T04:21:36.405Z,7.18
2022-09-05T04:25:05.248Z,7.19
2022-09-05T04:28:14.384Z,7.22
2022-09-05T04:31:39.062Z,7.49
2022-09-05T04:34:43.219Z,7.48
2022-09-05T04:37:56.265Z,7.55
2022-09-05T04:40:48.938Z,7.61
2022-09-05T04:43:46.584Z,7.66
2022-09-05T04:46:48.822Z,7.77
2022-09-05T04:49:41.207Z,7.94
2022-09-05T04:52:52.232Z,8.00
2022-09-05T04:55:44.720Z,8.42
2022-09-05T04:59:58.241Z,8.64
2022-09-05T05:06:00.080Z,11.10
2022-09-05T05:06:10.259Z,11.28
2022-09-05T05:09:02.209Z,12.25
2022-09-05T05:17:54.302Z,11.76
2022-09-05T05:18:09.768Z,11.17
2022-09-05T05:18:49.003Z,11.10
2022-09-05T05:21:47.711Z,10.72
2022-09-05T05:24:41.823Z,10.68
2022-09-05T05:28:14.974Z,10.67
2022-09-05T05:31:21.931Z,10.91
2022-09-05T05:34:32.411Z,11.22
2022-09-05T05:37:37.246Z,11.21
2022-09-05T05:40:31.850Z,11.31
2022-09-05T05:43:40.838Z,11.50
2022-09-05T05:46:37.951Z,11.42
2022-09-05T05:49:39.417Z,11.57
2022-09-05T05:52:38.145Z,11.59
2022-09-05T05:55:51.936Z,11.65
2022-09-05T05:58:44.983Z,12.09
2022-09-05T06:02:16.661Z,12.03
2022-09-05T06:05:04.141Z,12.22
2022-09-05T06:12:33.080Z,12.42
2022-09-05T06:15:01.180Z,12.41
2022-09-05T06:15:19.356Z,12.70
2022-09-05T06:18:28.155Z,12.98
2022-09-05T06:22:10.456Z,13.15
2022-09-05T06:25:17.321Z,13.10
2022-09-05T06:28:18.649Z,13.21
2022-09-05T06:31:29.545Z,13.65
2022-09-05T06:34:52.211Z,13.93
2022-09-05T06:37:48.165Z,13.90
2022-09-05T06:41:00.986Z,13.86
2022-09-05T06:44:23.867Z,13.88
2022-09-05T06:47:24.113Z,14.14
2022-09-05T06:50:28.220Z,14.35
2022-09-05T06:53:35.624Z,14.36
2022-09-05T06:57:10.212Z,14.42
2022-09-05T06:59:56.822Z,14.48
2022-09-05T07:03:04.533Z,14.77
2022-09-05T07:06:08.059Z,14.93
2022-09-05T07:09:12.820Z,15.16
2022-09-05T07:12:19.175Z,15.35
2022-09-05T07:15:29.015Z,15.47
2022-09-05T07:18:26.160Z,15.82
2022-09-05T07:21:26.454Z,16.12
2022-09-05T07:24:53.625Z,16.15
2022-09-05T07:28:25.761Z,16.33
2022-09-05T07:30:59.783Z,16.48
2022-09-05T07:33:48.353Z,16.44
2022-09-05T07:36:50.255Z,16.49
2022-09-05T07:40:11.273Z,18.16
2022-09-05T07:43:15.043Z,22.40
2022-09-05T07:46:13.971Z,26.09
2022-09-05T07:49:05.107Z,28.24
2022-09-05T07:56:59.248Z,28.99
2022-09-05T07:57:01.707Z,30.61
2022-09-05T07:58:50.463Z,31.88
2022-09-05T08:01:41.114Z,32.37
2022-09-05T08:04:39.452Z,33.41
2022-09-05T08:07:48.688Z,33.92
2022-09-05T08:11:23.361Z,35.58
2022-09-05T08:14:44.047Z,34.63
2022-09-05T08:17:30.166Z,34.44
2022-09-05T08:20:31.205Z,35.05
2022-09-05T08:23:43.368Z,35.23
2022-09-05T08:26:57.429Z,35.30
2022-09-05T08:29:51.271Z,34.84
2022-09-05T08:33:10.743Z,34.29
2022-09-05T08:36:09.713Z,34.52
2022-09-05T08:39:01.167Z,34.90
2022-09-05T08:42:14.463Z,35.56
2022-09-05T08:46:46.892Z,36.24
2022-09-05T08:48:40.278Z,35.64
2022-09-05T08:51:54.441Z,36.34
2022-09-05T08:55:05.834Z,36.45
2022-09-05T08:57:56.111Z,34.33
2022-09-05T09:01:00.272Z,34.60
2022-09-05T09:03:51.975Z,34.49
2022-09-05T09:07:12.282Z,35.21
2022-09-05T09:10:27.832Z,35.79
2022-09-05T09:13:53.413Z,35.52
2022-09-05T09:16:58.095Z,36.18
2022-09-05T09:19:59.750Z,36.43
2022-09-05T09:23:06.273Z,35.66
2022-09-05T09:25:58.630Z,35.75
2022-09-05T09:28:51.988Z,35.65
2022-09-05T09:31:56.486Z,35.40
2022-09-05T09:35:00.184Z,35.18
2022-09-05T09:38:03.557Z,35.52
2022-09-05T09:41:02.678Z,35.23
2022-09-05T09:44:35.055Z,34.72
2022-09-05T09:48:05.482Z,34.84
2022-09-05T09:51:09.655Z,34.86
2022-09-05T09:54:10.599Z,34.49
2022-09-05T09:57:17.956Z,33.92
2022-09-05T10:00:14.688Z,33.22
2022-09-05T10:08:26.988Z,33.17
2022-09-05T10:10:50.463Z,33.51
2022-09-05T10:10:54.002Z,33.45
2022-09-05T10:14:04.034Z,32.96
2022-09-05T10:17:15.546Z,30.96
2022-09-05T10:20:09.139Z,28.93
2022-09-05T10:23:07.791Z,27.41
2022-09-05T10:26:24.748Z,26.25
2022-09-05T10:29:52.816Z,25.40
2022-09-05T10:35:05.198Z,24.67
2022-09-05T10:35:51.976Z,24.03
2022-09-05T10:38:44.713Z,23.71
2022-09-05T10:41:49.262Z,23.24
2022-09-05T10:44:48.971Z,23.01
2022-09-05T10:47:35.648Z,22.89
2022-09-05T10:50:27.735Z,22.80
2022-09-05T10:53:43.464Z,22.39
2022-09-05T10:56:37.287Z,22.40
2022-09-05T11:02:21.799Z,22.50
2022-09-05T11:03:04.046Z,22.15
2022-09-05T11:06:09.089Z,22.16
2022-09-05T11:09:39.206Z,22.24
2022-09-05T11:13:11.311Z,22.43
2022-09-05T11:16:25.957Z,22.15
2022-09-05T11:19:29.952Z,22.17
2022-09-05T11:22:22.791Z,21.99
2022-09-05T11:25:40.021Z,21.77
2022-09-05T11:29:00.386Z,21.68
2022-09-05T11:34:53.060Z,21.77
2022-09-05T11:39:51.718Z,21.82
2022-09-05T11:39:55.187Z,21.89
2022-09-05T11:42:09.827Z,21.92
2022-09-05T11:45:27.052Z,22.12
2022-09-05T11:48:46.578Z,22.10
2022-09-05T11:52:03.773Z,22.12
2022-09-05T11:55:00.150Z,22.17
2022-09-05T11:58:43.151Z,22.11
2022-09-05T12:01:43.441Z,21.86
2022-09-05T12:05:48.446Z,21.51
2022-09-05T12:08:42.600Z,21.71
2022-09-05T12:11:55.193Z,22.07
2022-09-05T12:15:12.551Z,22.16
2022-09-05T12:18:19.354Z,21.69
2022-09-05T12:21:18.299Z,21.75
2022-09-05T12:25:23.670Z,21.83
2022-09-05T12:27:46.087Z,22.01
2022-09-05T12:31:12.015Z,21.94
2022-09-05T12:40:15.733Z,21.69
2022-09-05T12:41:42.175Z,21.96
2022-09-05T12:42:10.358Z,21.38
2022-09-05T12:44:39.324Z,20.98
2022-09-05T12:47:17.170Z,20.70
2022-09-05T12:50:17.821Z,20.42
2022-09-05T12:53:24.839Z,20.61
2022-09-05T12:58:57.223Z,21.04
2022-09-05T13:02:57.342Z,21.42
2022-09-05T13:03:27.709Z,21.89
2022-09-05T13:06:25.165Z,22.19
2022-09-05T13:09:37.183Z,22.43
2022-09-05T13:14:54.759Z,22.07
2022-09-05T13:15:58.043Z,21.89
2022-09-05T13:18:46.459Z,21.56
2022-09-05T13:21:37.874Z,21.25
2022-09-05T13:24:32.231Z,20.75
2022-09-05T13:27:27.372Z,20.49
2022-09-05T13:31:56.328Z,20.29
2022-09-05T13:38:10.557Z,20.10
2022-09-05T13:38:29.195Z,19.97
2022-09-05T13:39:59.579Z,19.80
2022-09-05T13:43:06.149Z,19.55
2022-09-05T13:46:06.514Z,19.70
2022-09-05T13:52:35.674Z,20.60
2022-09-05T13:55:41.932Z,20.67
2022-09-05T13:58:42.796Z,20.96
2022-09-05T14:02:26.937Z,21.17
2022-09-05T14:05:32.249Z,21.29
2022-09-05T14:08:33.621Z,21.35
2022-09-05T14:11:41.139Z,21.39
2022-09-05T14:18:21.324Z,21.63
2022-09-05T14:21:18.953Z,21.74
2022-09-05T14:24:27.351Z,21.77
2022-09-05T14:27:25.893Z,21.66
2022-09-05T14:37:42.766Z,20.98
2022-09-05T14:37:46.137Z,21.34
2022-09-05T14:37:51.911Z,21.07
2022-09-05T14:40:43.741Z,20.97
2022-09-05T14:43:26.866Z,20.89
2022-09-05T14:46:00.372Z,20.89
2022-09-05T14:48:46.425Z,20.97
2022-09-05T14:51:30.053Z,20.93
2022-09-05T14:54:05.314Z,21.04
2022-09-05T15:01:23.379Z,21.01
2022-09-05T15:02:50.442Z,20.93
2022-09-05T15:03:02.057Z,21.02
2022-09-05T15:05:41.109Z,20.99
2022-09-05T15:09:42.160Z,20.99
2022-09-05T15:12:21.029Z,20.96
2022-09-05T15:14:08.495Z,21.07
2022-09-05T15:16:45.767Z,21.16
2022-09-05T15:19:55.309Z,20.98
2022-09-05T15:22:38.112Z,21.00
2022-09-05T15:25:19.968Z,20.83
2022-09-05T15:27:50.400Z,20.49
2022-09-05T15:30:21.312Z,20.26
2022-09-05T15:32:50.943Z,20.15
2022-09-05T15:35:42.291Z,20.07
2022-09-05T15:38:54.333Z,19.94
2022-09-05T15:41:34.331Z,19.95
2022-09-05T15:44:14.891Z,20.14
2022-09-05T15:46:57.212Z,20.10
2022-09-05T15:49:30.951Z,20.06
2022-09-05T15:52:11.190Z,20.09
2022-09-05T15:54:53.148Z,19.82
2022-09-05T15:57:29.428Z,19.56
2022-09-05T16:00:00.136Z,19.54
2022-09-05T16:02:35.143Z,19.68
2022-09-05T16:09:08.811Z,19.49
2022-09-05T16:10:41.777Z,19.39
2022-09-05T16:12:00.522Z,19.38
2022-09-05T16:14:28.553Z,19.32
2022-09-05T16:23:16.013Z,19.40
2022-09-05T16:23:27.591Z,19.14
2022-09-05T16:23:35.247Z,19.34
2022-09-05T16:26:25.672Z,19.30
2022-09-05T16:29:10.394Z,19.11
2022-09-05T16:31:48.593Z,18.83
2022-09-05T16:34:45.405Z,18.69
2022-09-05T16:37:16.709Z,18.54
2022-09-05T16:40:08.201Z,18.25
2022-09-05T16:42:54.851Z,18.04
2022-09-05T16:45:46.773Z,17.86
2022-09-05T16:48:33.625Z,17.71
2022-09-05T16:51:24.707Z,17.47
2022-09-05T16:54:03.865Z,17.26
2022-09-05T16:56:41.783Z,17.68
2022-09-05T16:59:17.318Z,17.65
2022-09-05T17:02:07.425Z,17.71
2022-09-05T17:05:04.520Z,17.71
2022-09-05T17:07:45.254Z,17.66
2022-09-05T17:10:19.327Z,17.72
2022-09-05T17:12:54.054Z,17.48
2022-09-05T17:15:31.344Z,17.35
2022-09-05T17:18:19.668Z,17.35
2022-09-05T17:21:00.546Z,16.96
2022-09-05T17:29:24.707Z,16.72
2022-09-05T17:29:38.349Z,16.42
2022-09-05T17:32:47.261Z,15.89
2022-09-05T17:35:56.824Z,15.59
2022-09-05T17:38:53.157Z,15.42
2022-09-05T17:42:14.872Z,15.24
2022-09-05T17:45:10.909Z,15.05
2022-09-05T17:47:51.029Z,14.90
2022-09-05T17:50:51.141Z,14.72
2022-09-05T17:53:25.819Z,14.61
2022-09-05T17:55:55.390Z,14.44
2022-09-05T17:58:48.939Z,14.29
2022-09-05T18:01:26.634Z,14.19
2022-09-05T18:04:16.945Z,14.18
2022-09-05T18:06:55.398Z,14.07
2022-09-05T18:09:40.742Z,14.02
2022-09-05T18:13:13.840Z,13.79
2022-09-05T18:15:40.419Z,13.68
2022-09-05T18:19:28.051Z,13.62
2022-09-05T18:21:23.107Z,13.45
2022-09-05T18:24:02.278Z,13.47
2022-09-05T18:26:42.642Z,13.40
2022-09-05T18:29:57.144Z,13.25
2022-09-05T18:32:13.059Z,13.16
2022-09-05T18:34:43.393Z,12.97
2022-09-05T18:37:36.264Z,12.89
2022-09-05T18:40:16.650Z,12.81
2022-09-05T18:43:10.357Z,12.73
2022-09-05T18:45:52.251Z,12.70
2022-09-05T18:48:29.045Z,12.70
2022-09-05T18:51:15.488Z,12.60
2022-09-05T18:53:47.560Z,12.57
2022-09-05T18:56:31.136Z,12.53
2022-09-05T18:59:24.013Z,12.33
2022-09-05T19:02:07.424Z,12.32
2022-09-05T19:04:58.799Z,12.26
2022-09-05T19:07:35.662Z,12.35
2022-09-05T19:10:36.139Z,12.31
2022-09-05T19:13:24.119Z,12.42
2022-09-05T19:16:42.513Z,12.24
2022-09-05T19:19:18.473Z,12.22
2022-09-05T19:22:33.319Z,12.10
2022-09-05T19:24:46.160Z,11.97
2022-09-05T19:29:45.862Z,11.88
2022-09-05T19:36:50.137Z,11.81
2022-09-05T19:36:50.206Z,11.87
2022-09-05T19:36:53.191Z,12.01
2022-09-05T19:43:19.896Z,11.92
2022-09-05T19:47:35.036Z,11.93
2022-09-05T19:47:41.665Z,12.13
2022-09-05T19:50:24.255Z,12.30
2022-09-05T19:53:02.773Z,12.19
2022-09-05T19:55:35.785Z,12.16
2022-09-05T19:58:18.952Z,12.25
2022-09-05T20:01:01.535Z,12.29
2022-09-05T20:03:38.533Z,12.24
2022-09-05T20:06:29.643Z,12.16
2022-09-05T20:09:18.844Z,12.31
2022-09-05T20:11:52.754Z,12.11
2022-09-05T20:14:22.263Z,11.92
2022-09-05T20:16:52.442Z,11.98
2022-09-05T20:19:29.533Z,12.01
2022-09-05T20:22:24.243Z,11.94
2022-09-05T20:24:50.421Z,11.82
2022-09-05T20:27:19.215Z,11.86
2022-09-05T20:30:05.496Z,11.83
2022-09-05T20:32:42.298Z,11.86
2022-09-05T20:39:12.717Z,11.80
2022-09-05T20:43:15.896Z,11.71
2022-09-05T20:43:19.345Z,11.47
2022-09-05T20:44:22.421Z,11.51
2022-09-05T20:52:45.863Z,11.57
2022-09-05T20:54:23.024Z,11.34
2022-09-05T20:54:28.945Z,11.51
2022-09-05T20:56:03.475Z,11.35
2022-09-05T20:58:32.721Z,11.26
2022-09-05T21:01:21.541Z,11.21
2022-09-05T21:04:05.545Z,11.14
2022-09-05T21:06:41.326Z,11.06
2022-09-05T21:09:14.954Z,10.98
2022-09-05T21:11:47.972Z,11.02
2022-09-05T21:14:22.930Z,10.96
2022-09-05T21:17:15.738Z,10.87
2022-09-05T21:19:53.456Z,11.04
2022-09-05T21:22:43.614Z,10.81
2022-09-05T21:25:36.015Z,10.65
2022-09-05T21:28:36.425Z,10.77
2022-09-05T21:31:13.709Z,10.74
2022-09-05T21:33:45.918Z,10.66
2022-09-05T21:36:15.882Z,10.64
2022-09-05T21:38:44.299Z,10.79
2022-09-05T21:41:16.215Z,10.69
2022-09-05T21:47:34.943Z,10.53
2022-09-05T21:47:47.284Z,10.47
2022-09-05T21:49:23.334Z,10.28
2022-09-05T21:51:51.872Z,10.36
2022-09-05T21:59:18.297Z,10.32
2022-09-05T21:59:19.660Z,10.12
2022-09-05T22:00:14.623Z,10.03
2022-09-05T22:02:49.090Z,9.92
2022-09-05T22:05:17.281Z,10.05
2022-09-05T22:07:44.962Z,10.00
2022-09-05T22:10:12.865Z,9.93
2022-09-05T22:12:41.057Z,9.77
2022-09-05T22:15:27.586Z,9.65
2022-09-05T22:18:17.623Z,9.47
2022-09-05T22:20:51.427Z,9.51
2022-09-05T22:23:39.437Z,9.50
2022-09-05T22:26:07.302Z,9.41
2022-09-05T22:28:38.766Z,9.40
2022-09-05T22:31:07.813Z,9.28
2022-09-05T22:33:36.428Z,9.37
2022-09-05T22:36:04.915Z,9.26
2022-09-05T22:38:33.455Z,9.14
2022-09-05T22:41:01.140Z,9.16
2022-09-05T22:43:34.001Z,9.22
2022-09-05T22:46:01.873Z,9.31
2022-09-05T22:48:29.923Z,9.31
2022-09-05T22:50:58.122Z,9.21
2022-09-05T22:53:26.026Z,9.36
2022-09-05T22:56:02.972Z,9.37
2022-09-05T22:58:35.953Z,9.31
2022-09-05T23:01:03.756Z,9.27
2022-09-05T23:03:31.869Z,9.26
2022-09-05T23:06:10.636Z,9.08
2022-09-05T23:08:38.443Z,9.05
2022-09-05T23:11:17.294Z,9.10
2022-09-05T23:13:45.011Z,9.04
2022-09-05T23:16:13.433Z,9.03
2022-09-05T23:18:41.288Z,8.94
2022-09-05T23:21:11.756Z,8.90
2022-09-05T23:23:41.410Z,8.81
2022-09-05T23:26:11.942Z,8.82
2022-09-05T23:28:43.340Z,8.80
2022-09-05T23:31:12.047Z,8.77
2022-09-05T23:33:42.366Z,8.66
2022-09-05T23:36:15.244Z,8.54
2022-09-05T23:38:43.917Z,8.47
2022-09-05T23:41:14.387Z,8.48
2022-09-05T23:43:42.639Z,8.40
2022-09-05T23:46:10.398Z,8.34
2022-09-05T23:48:38.388Z,8.45
2022-09-05T23:51:08.388Z,8.36
2022-09-05T23:53:36.690Z,8.25
2022-09-05T23:56:08.124Z,8.23
2022-09-05T23:58:36.956Z,8.23
